Time;durP1;ratioP1;P1;durP2;ratioP2;P2;SDS_P1;SDS_P2;PMS_P1;PMS_P2;Temp;Humidity;BMP_temperature;BMP_pressure;BME280_temperature;BME280_humidity;BME280_pressure;Samples;Min_cycle;Max_cycle;Signal;HPM_P1;HPM_P2
2023/05/23 04:34:07;;;;;;;65.83;59.17;;;19.20;99.90;;;;;;5527160;23;20476;-76
2023/05/23 04:36:36;;;;;;;65.07;58.67;;;19.10;99.90;;;;;;5032625;28;20476;-77
2023/05/23 04:39:03;;;;;;;61.10;55.20;;;19.00;99.90;;;;;;5031526;28;20464;-77
2023/05/23 04:41:31;;;;;;;61.23;55.30;;;19.00;99.90;;;;;;5032350;28;20728;-76
2023/05/23 04:43:57;;;;;;;63.17;56.43;;;19.10;99.90;;;;;;5033040;28;20946;-78
2023/05/23 04:46:25;;;;;;;63.50;56.97;;;19.20;99.90;;;;;;5032595;28;20946;-78
2023/05/23 04:48:52;;;;;;;60.27;54.27;;;19.20;99.90;;;;;;5033073;28;20599;-77
2023/05/23 04:51:21;;;;;;;61.37;55.37;;;19.30;99.90;;;;;;5032617;28;20957;-79
2023/05/23 04:53:48;;;;;;;61.10;55.30;;;19.20;99.90;;;;;;5032477;28;20517;-78
2023/05/23 04:56:16;;;;;;;60.93;54.93;;;19.20;99.90;;;;;;5031859;28;20998;-79
2023/05/23 04:58:44;;;;;;;57.77;52.17;;;19.20;99.90;;;;;;5032891;28;20453;-78
2023/05/23 05:01:11;;;;;;;63.80;57.00;;;19.20;99.90;;;;;;5033073;28;20457;-77
2023/05/23 05:03:37;;;;;;;61.37;55.07;;;19.10;99.90;;;;;;5033157;28;20445;-78
2023/05/23 05:06:04;;;;;;;62.33;56.10;;;19.20;99.90;;;;;;5032396;28;20449;-78
2023/05/23 05:08:33;;;;;;;61.20;55.30;;;19.30;99.90;;;;;;5032086;28;21006;-76
2023/05/23 05:10:59;;;;;;;58.33;52.70;;;19.50;99.90;;;;;;5032182;28;20497;-78
2023/05/23 05:13:26;;;;;;;58.00;52.30;;;19.60;99.90;;;;;;5032993;28;21091;-78
2023/05/23 05:15:53;;;;;;;62.33;56.00;;;19.70;99.90;;;;;;5032543;28;20449;-76
2023/05/23 05:18:19;;;;;;;55.83;50.33;;;19.70;99.90;;;;;;5024243;28;21004;-76
2023/05/23 05:20:46;;;;;;;60.67;54.63;;;19.80;99.90;;;;;;5033632;28;20448;-75
2023/05/23 05:23:13;;;;;;;59.13;53.43;;;19.90;99.90;;;;;;5030152;28;20461;-76
2023/05/23 05:25:41;;;;;;;61.63;55.23;;;19.90;99.90;;;;;;5032562;28;20449;-76
2023/05/23 05:28:07;;;;;;;55.00;50.00;;;19.80;99.90;;;;;;5030125;28;20576;-76
2023/05/23 05:30:35;;;;;;;55.77;50.80;;;20.00;99.90;;;;;;5032671;28;20456;-75
2023/05/23 05:33:02;;;;;;;57.93;52.50;;;19.90;99.90;;;;;;5032572;28;20575;-77
2023/05/23 05:35:30;;;;;;;56.47;50.97;;;19.90;99.90;;;;;;5031790;28;20455;-77
2023/05/23 05:37:57;;;;;;;55.53;49.87;;;19.90;99.90;;;;;;5031728;28;20914;-76
2023/05/23 05:40:25;;;;;;;55.17;49.97;;;19.80;99.90;;;;;;5031447;28;20453;-76
2023/05/23 05:42:54;;;;;;;57.57;52.20;;;19.80;99.90;;;;;;5030860;28;20483;-76
2023/05/23 05:45:20;;;;;;;57.10;51.80;;;20.00;99.90;;;;;;5029762;28;20871;-76
2023/05/23 05:47:47;;;;;;;56.03;50.60;;;20.10;99.90;;;;;;5031341;28;20550;-75
2023/05/23 05:50:14;;;;;;;53.27;47.90;;;20.20;99.90;;;;;;5028512;28;20511;-76
2023/05/23 05:52:41;;;;;;;53.50;48.43;;;20.40;99.90;;;;;;5030748;28;20449;-76
2023/05/23 05:55:10;;;;;;;53.97;49.00;;;20.40;99.90;;;;;;5029864;28;20536;-75
2023/05/23 05:57:37;;;;;;;56.17;50.97;;;20.50;99.90;;;;;;5030089;28;20540;-73
2023/05/23 06:00:11;;;;;;;54.70;49.60;;;20.60;99.90;;;;;;5029698;28;20543;-74
2023/05/23 06:02:38;;;;;;;56.70;51.60;;;20.60;99.90;;;;;;5030111;28;20551;-74
2023/05/23 06:05:06;;;;;;;55.23;49.83;;;20.60;99.90;;;;;;5030041;28;20449;-76
2023/05/23 06:07:33;;;;;;;53.10;48.20;;;20.60;99.90;;;;;;5029668;28;20555;-75
2023/05/23 06:10:00;;;;;;;51.30;46.60;;;20.80;99.90;;;;;;5029988;28;20950;-76
2023/05/23 06:12:27;;;;;;;51.43;46.77;;;20.70;99.90;;;;;;5030005;28;20473;-76
2023/05/23 06:14:53;;;;;;;50.67;46.30;;;20.70;99.90;;;;;;5017409;28;20449;-76
2023/05/23 06:17:21;;;;;;;53.97;49.00;;;20.80;99.90;;;;;;5008872;28;20450;-76
2023/05/23 06:19:48;;;;;;;54.33;49.27;;;20.70;99.90;;;;;;5010117;28;20904;-76
2023/05/23 06:22:15;;;;;;;50.67;45.70;;;20.70;99.90;;;;;;5013321;28;20445;-76
2023/05/23 06:24:41;;;;;;;54.40;49.30;;;20.90;99.90;;;;;;5007789;28;20626;-75
2023/05/23 06:27:08;;;;;;;55.57;50.37;;;20.90;99.90;;;;;;5013284;28;20919;-74
2023/05/23 06:29:35;;;;;;;53.00;48.23;;;20.90;99.90;;;;;;5012628;28;20875;-75
2023/05/23 06:32:02;;;;;;;55.23;50.03;;;20.80;99.90;;;;;;5013632;28;20469;-77
2023/05/23 06:34:30;;;;;;;53.53;48.83;;;20.60;99.90;;;;;;5014123;28;20473;-75
2023/05/23 06:36:57;;;;;;;51.37;46.97;;;20.60;99.90;;;;;;5010955;28;20796;-75
2023/05/23 06:39:23;;;;;;;53.50;48.40;;;20.60;99.90;;;;;;5015437;28;20950;-74
2023/05/23 06:41:50;;;;;;;54.27;49.50;;;20.70;99.90;;;;;;5016642;28;20469;-76
2023/05/23 06:44:17;;;;;;;57.33;52.03;;;20.80;99.90;;;;;;5016028;28;20532;-76
2023/05/23 06:46:45;;;;;;;52.47;47.73;;;20.70;99.90;;;;;;5016816;28;20499;-76
2023/05/23 06:49:12;;;;;;;50.67;46.30;;;20.90;99.90;;;;;;5017607;28;20482;-76
2023/05/23 06:51:40;;;;;;;51.10;46.80;;;21.00;99.90;;;;;;5015067;28;20450;-77
2023/05/23 06:54:07;;;;;;;54.27;49.67;;;20.90;99.90;;;;;;5013805;28;20461;-78
2023/05/23 06:56:34;;;;;;;52.77;48.00;;;20.90;99.90;;;;;;5013306;28;20860;-76
2023/05/23 06:59:00;;;;;;;53.63;48.43;;;20.70;99.90;;;;;;5013320;28;20512;-76
2023/05/23 07:01:27;;;;;;;56.27;51.27;;;20.60;99.90;;;;;;5013201;28;20446;-75
2023/05/23 07:03:54;;;;;;;56.03;50.93;;;20.50;99.90;;;;;;5015240;28;20466;-75
2023/05/23 07:06:20;;;;;;;54.10;49.50;;;20.30;99.90;;;;;;5013019;28;20823;-76
2023/05/23 07:08:48;;;;;;;52.97;48.30;;;20.40;99.90;;;;;;5012946;28;20485;-76
2023/05/23 07:11:15;;;;;;;53.60;48.87;;;20.30;99.90;;;;;;5012547;28;20453;-76
2023/05/23 07:13:42;;;;;;;57.50;52.20;;;20.10;99.90;;;;;;5012770;28;20456;-76
2023/05/23 07:16:08;;;;;;;53.57;48.93;;;19.90;99.90;;;;;;5013181;28;20445;-78
2023/05/23 07:18:35;;;;;;;55.73;50.03;;;19.80;99.90;;;;;;5013064;28;21007;-77
2023/05/23 07:21:02;;;;;;;53.90;49.07;;;19.60;99.90;;;;;;5013041;28;20450;-76
2023/05/23 07:23:32;;;;;;;55.13;50.03;;;19.60;99.90;;;;;;5013538;28;20457;-76
2023/05/23 07:26:01;;;;;;;56.07;50.77;;;19.60;99.90;;;;;;5012933;28;20453;-76
2023/05/23 07:28:28;;;;;;;53.87;48.97;;;19.50;99.90;;;;;;5008317;28;21081;-76
2023/05/23 07:30:56;;;;;;;54.20;49.10;;;19.40;99.90;;;;;;5013658;28;20454;-77
2023/05/23 07:33:23;;;;;;;49.63;45.23;;;19.20;99.90;;;;;;5013992;28;20485;-78
2023/05/23 07:35:49;;;;;;;52.67;48.00;;;18.90;99.90;;;;;;5014030;28;20460;-78
2023/05/23 07:38:16;;;;;;;47.93;43.93;;;18.90;99.90;;;;;;5013034;28;20450;-77
2023/05/23 07:40:43;;;;;;;47.13;42.83;;;19.00;99.90;;;;;;5013539;28;20461;-76
2023/05/23 07:43:11;;;;;;;45.83;41.73;;;19.10;99.90;;;;;;5012935;28;20959;-76
2023/05/23 07:45:37;;;;;;;43.63;39.80;;;19.10;99.90;;;;;;5013723;28;20446;-76
2023/05/23 07:48:04;;;;;;;43.93;39.93;;;18.90;99.90;;;;;;5013495;28;20508;-77
2023/05/23 07:50:31;;;;;;;45.13;41.13;;;18.80;99.90;;;;;;5012592;28;20450;-76
2023/05/23 07:52:58;;;;;;;43.20;39.50;;;18.80;99.90;;;;;;5013330;28;20465;-77
2023/05/23 07:55:24;;;;;;;42.80;38.87;;;18.80;99.90;;;;;;5013062;28;20452;-76
2023/05/23 07:57:53;;;;;;;43.90;40.37;;;18.70;99.90;;;;;;5013078;28;20536;-75
2023/05/23 08:00:22;;;;;;;46.60;42.10;;;18.90;99.90;;;;;;5012303;28;20457;-76
2023/05/23 08:02:48;;;;;;;45.10;41.40;;;19.00;99.90;;;;;;5012717;28;20453;-76
2023/05/23 08:05:18;;;;;;;43.67;39.93;;;19.10;99.90;;;;;;5012319;28;20530;-77
2023/05/23 08:07:44;;;;;;;44.70;40.90;;;19.40;99.90;;;;;;5012554;28;20549;-81
2023/05/23 08:10:11;;;;;;;47.50;43.40;;;19.50;99.90;;;;;;5012310;28;20486;-76
2023/05/23 08:12:38;;;;;;;46.77;42.87;;;19.50;99.90;;;;;;5013029;28;20450;-77
2023/05/23 08:15:06;;;;;;;46.10;42.30;;;19.30;99.90;;;;;;5011533;28;20452;-77
2023/05/23 08:17:34;;;;;;;46.30;42.30;;;19.40;99.90;;;;;;5012249;28;20462;-77
2023/05/23 08:20:01;;;;;;;40.70;37.50;;;19.60;99.90;;;;;;5011986;28;20989;-78
2023/05/23 08:22:27;;;;;;;42.53;38.63;;;19.50;99.90;;;;;;5012306;28;20462;-78
2023/05/23 08:24:54;;;;;;;39.93;36.77;;;19.50;99.90;;;;;;5012341;28;20524;-76
2023/05/23 08:27:21;;;;;;;40.93;37.27;;;19.60;99.90;;;;;;5013098;28;20450;-77
2023/05/23 08:29:48;;;;;;;40.47;36.47;;;19.60;99.90;;;;;;5012799;28;20484;-76
2023/05/23 08:32:15;;;;;;;39.70;36.30;;;19.40;99.90;;;;;;5012571;28;20641;-77
2023/05/23 08:34:43;;;;;;;38.53;34.97;;;19.40;99.90;;;;;;5012107;28;20823;-77
2023/05/23 08:37:09;;;;;;;41.23;37.90;;;19.40;99.90;;;;;;5014027;28;20454;-77
2023/05/23 08:39:36;;;;;;;38.87;35.67;;;19.40;99.90;;;;;;5013232;28;20446;-76
2023/05/23 08:42:03;;;;;;;38.70;35.27;;;19.40;99.90;;;;;;5011988;28;20493;-78
2023/05/23 08:44:30;;;;;;;38.53;35.20;;;19.50;99.90;;;;;;5012530;28;20481;-78
2023/05/23 08:47:04;;;;;;;39.33;36.10;;;19.60;99.90;;;;;;5012476;28;20556;-78
2023/05/23 08:49:31;;;;;;;36.77;33.67;;;19.50;99.90;;;;;;5013057;28;20727;-77
2023/05/23 08:52:03;;;;;;;35.50;32.43;;;19.90;99.90;;;;;;5011766;28;20537;-78
2023/05/23 08:54:31;;;;;;;34.00;31.30;;;19.80;99.90;;;;;;5014427;28;21103;-76
2023/05/23 08:56:58;;;;;;;34.63;31.67;;;20.00;99.90;;;;;;5013874;28;20465;-78
2023/05/23 08:59:26;;;;;;;34.73;32.03;;;20.00;99.90;;;;;;5013582;28;20461;-76
2023/05/23 09:01:56;;;;;;;34.03;31.17;;;20.40;99.90;;;;;;5013378;28;20564;-76
2023/05/23 09:04:23;;;;;;;32.93;30.43;;;20.30;99.90;;;;;;5012220;28;20476;-74
2023/05/23 09:06:51;;;;;;;32.27;29.77;;;20.30;99.90;;;;;;5014873;28;20504;-77
2023/05/23 09:09:19;;;;;;;30.13;28.00;;;20.10;99.90;;;;;;5014108;28;20512;-75
2023/05/23 09:11:46;;;;;;;34.93;31.37;;;19.90;99.90;;;;;;5013346;28;20450;-77
2023/05/23 09:14:16;;;;;;;34.50;31.93;;;19.60;99.90;;;;;;5013287;28;20442;-76
2023/05/23 09:16:47;;;;;;;33.13;30.60;;;19.60;99.90;;;;;;5012682;28;20983;-76
2023/05/23 09:19:14;;;;;;;30.60;27.47;;;19.80;99.90;;;;;;5012081;28;20923;-77
2023/05/23 09:21:44;;;;;;;33.47;30.83;;;20.00;99.90;;;;;;5010694;28;20504;-77
2023/05/23 09:24:11;;;;;;;30.90;28.60;;;20.30;99.90;;;;;;5009632;28;20561;-76
2023/05/23 09:26:39;;;;;;;33.80;31.30;;;20.30;99.90;;;;;;5009692;28;20920;-76
2023/05/23 09:29:07;;;;;;;33.13;30.83;;;20.00;99.90;;;;;;5010025;28;20486;-75
2023/05/23 09:31:33;;;;;;;32.37;29.57;;;19.90;99.90;;;;;;5010033;28;20544;-76
2023/05/23 09:34:00;;;;;;;32.33;29.50;;;20.00;99.90;;;;;;5009397;28;20505;-78
2023/05/23 09:36:29;;;;;;;31.20;28.90;;;19.90;99.90;;;;;;5009173;28;20442;-77
2023/05/23 09:38:56;;;;;;;32.00;29.60;;;19.70;99.90;;;;;;5009463;28;20536;-77
2023/05/23 09:41:23;;;;;;;29.47;27.47;;;19.80;99.90;;;;;;5010215;28;20970;-77
2023/05/23 09:43:52;;;;;;;32.27;29.23;;;19.80;99.90;;;;;;5009630;28;20561;-77
2023/05/23 09:46:20;;;;;;;31.43;29.10;;;20.00;99.90;;;;;;5008764;28;20458;-76
2023/05/23 09:48:47;;;;;;;30.47;28.27;;;19.90;99.90;;;;;;5008892;28;20500;-76
2023/05/23 09:51:15;;;;;;;30.70;28.20;;;20.00;99.90;;;;;;5008955;28;20519;-75
2023/05/23 09:53:41;;;;;;;29.90;27.50;;;20.10;99.90;;;;;;5007622;28;20884;-76
2023/05/23 09:56:10;;;;;;;30.07;27.60;;;20.00;99.90;;;;;;5008441;28;20445;-75
2023/05/23 09:58:39;;;;;;;29.70;27.50;;;20.10;99.90;;;;;;5009104;28;20449;-76
2023/05/23 10:01:10;;;;;;;30.73;27.90;;;20.30;99.90;;;;;;5008803;28;20533;-76
2023/05/23 10:03:44;;;;;;;28.30;26.10;;;20.50;99.90;;;;;;5009189;28;20445;-77
2023/05/23 10:06:22;;;;;;;29.60;27.50;;;20.50;99.90;;;;;;5009135;28;20445;-77
2023/05/23 10:08:55;;;;;;;29.13;26.90;;;20.50;99.90;;;;;;5009500;28;20857;-76
2023/05/23 10:11:51;;;;;;;28.90;26.47;;;20.60;99.90;;;;;;5009820;28;20476;-76
2023/05/23 10:14:18;;;;;;;28.70;26.40;;;20.70;99.90;;;;;;5009460;28;20461;-77
2023/05/23 10:16:56;;;;;;;27.73;25.80;;;20.60;99.90;;;;;;5017315;28;20560;-78
2023/05/23 10:19:25;;;;;;;27.20;25.13;;;20.70;99.90;;;;;;5027877;28;20535;-77
2023/05/23 10:21:59;;;;;;;28.30;26.40;;;20.80;99.90;;;;;;5029584;28;20445;-77
2023/05/23 10:24:26;;;;;;;27.90;25.80;;;21.10;99.90;;;;;;5029091;28;20476;-77
2023/05/23 10:26:53;;;;;;;27.70;25.43;;;21.50;99.90;;;;;;5029198;28;20535;-76
2023/05/23 10:29:21;;;;;;;28.80;26.70;;;21.50;99.90;;;;;;5023466;28;20579;-77
2023/05/23 10:31:51;;;;;;;24.87;23.07;;;21.70;99.90;;;;;;5028392;28;21093;-76
2023/05/23 10:34:28;;;;;;;26.00;24.10;;;21.90;99.90;;;;;;5028325;28;20481;-76
2023/05/23 10:37:00;;;;;;;26.33;24.53;;;22.20;99.90;;;;;;5028678;28;20460;-75
2023/05/23 10:39:49;;;;;;;26.33;24.30;;;22.40;99.90;;;;;;5028938;28;20973;-74
2023/05/23 10:42:23;;;;;;;26.07;24.37;;;22.40;99.90;;;;;;5028691;28;20480;-75
2023/05/23 10:44:50;;;;;;;25.70;23.77;;;22.50;99.90;;;;;;5029143;28;20445;-74
2023/05/23 10:47:27;;;;;;;27.23;25.20;;;22.30;99.90;;;;;;5028634;28;20559;-76
2023/05/23 10:49:55;;;;;;;25.53;23.93;;;21.90;99.90;;;;;;5028964;28;20481;-75
2023/05/23 10:52:25;;;;;;;24.73;23.00;;;21.70;99.90;;;;;;5028401;28;20510;-75
2023/05/23 10:54:53;;;;;;;25.73;23.70;;;21.60;99.90;;;;;;5029099;28;20453;-76
2023/05/23 10:57:21;;;;;;;25.17;23.13;;;21.80;99.90;;;;;;5028754;28;20453;-76
2023/05/23 10:59:50;;;;;;;24.97;23.27;;;21.90;99.90;;;;;;5028290;28;20456;-75
2023/05/23 11:02:25;;;;;;;25.57;23.87;;;21.90;99.90;;;;;;5027846;28;20877;-76
2023/05/23 11:05:21;;;;;;;25.70;23.67;;;21.60;99.90;;;;;;5028640;28;20482;-75
2023/05/23 11:08:07;;;;;;;24.10;22.37;;;21.70;99.90;;;;;;5032137;28;20527;-76
2023/05/23 11:10:51;;;;;;;21.53;20.23;;;21.70;99.90;;;;;;5031834;28;20516;-77
2023/05/23 11:13:18;;;;;;;22.90;21.40;;;21.70;99.90;;;;;;5032039;28;20448;-77
2023/05/23 11:15:45;;;;;;;24.33;22.63;;;22.00;99.90;;;;;;5032393;28;20846;-77
2023/05/23 11:18:20;;;;;;;22.70;20.97;;;22.10;99.90;;;;;;5031732;28;20448;-77
2023/05/23 11:20:51;;;;;;;24.10;22.30;;;21.80;99.90;;;;;;5031850;28;20455;-76
2023/05/23 11:23:18;;;;;;;22.30;20.70;;;22.10;99.90;;;;;;5031917;28;20461;-77
2023/05/23 11:25:48;;;;;;;22.43;20.97;;;22.60;99.90;;;;;;5031969;28;20899;-75
2023/05/23 11:28:16;;;;;;;22.73;21.23;;;22.80;98.80;;;;;;5030872;28;20852;-75
2023/05/23 11:30:43;;;;;;;22.27;20.70;;;23.00;98.20;;;;;;5027661;28;20554;-76
2023/05/23 11:33:12;;;;;;;21.93;20.47;;;22.90;98.80;;;;;;5030948;28;20495;-77
2023/05/23 11:35:40;;;;;;;22.33;20.83;;;23.50;97.90;;;;;;5032077;28;20939;-76
2023/05/23 11:38:09;;;;;;;21.03;19.40;;;23.50;96.60;;;;;;5031387;28;20453;-78
2023/05/23 11:40:37;;;;;;;20.17;18.90;;;23.20;96.40;;;;;;5031260;28;20543;-76
2023/05/23 11:43:06;;;;;;;18.93;17.90;;;23.00;96.80;;;;;;5030883;28;20453;-77
2023/05/23 11:45:33;;;;;;;20.67;19.57;;;23.50;96.40;;;;;;5031222;28;20537;-75
2023/05/23 11:48:05;;;;;;;20.67;19.37;;;24.20;95.80;;;;;;5030869;28;20457;-77
2023/05/23 11:50:32;;;;;;;22.30;21.00;;;24.10;94.90;;;;;;5030855;28;20538;-76
2023/05/23 11:53:00;;;;;;;21.90;20.60;;;23.90;95.60;;;;;;5030809;28;20445;-77
2023/05/23 11:55:28;;;;;;;24.10;22.50;;;23.60;96.70;;;;;;5031184;28;20453;-77
2023/05/23 11:57:56;;;;;;;22.60;21.20;;;23.70;96.70;;;;;;5030995;28;20456;-76
2023/05/23 12:00:23;;;;;;;24.67;23.13;;;23.90;96.60;;;;;;5031853;28;20548;-78
2023/05/23 12:02:50;;;;;;;23.20;21.90;;;23.50;96.80;;;;;;5031341;28;20980;-77
2023/05/23 12:05:16;;;;;;;24.30;22.70;;;23.40;97.00;;;;;;5019892;28;20840;-77
2023/05/23 12:07:45;;;;;;;24.30;22.63;;;23.20;97.60;;;;;;5011189;28;20445;-77
2023/05/23 12:10:11;;;;;;;22.30;21.00;;;23.30;97.10;;;;;;5010904;28;20580;-76
2023/05/23 12:12:41;;;;;;;22.67;21.20;;;23.90;96.10;;;;;;5011752;28;20469;-76
2023/05/23 12:15:08;;;;;;;23.20;21.40;;;24.30;95.70;;;;;;5011356;28;20461;-77
2023/05/23 12:17:36;;;;;;;21.80;20.60;;;25.00;94.80;;;;;;5010356;28;20478;-78
2023/05/23 12:20:03;;;;;;;21.27;20.07;;;25.20;93.60;;;;;;5010681;28;20507;-77
2023/05/23 12:22:30;;;;;;;23.60;22.10;;;25.30;93.00;;;;;;5010430;28;20456;-77
2023/05/23 12:24:57;;;;;;;22.33;21.03;;;25.60;92.30;;;;;;5010829;28;20532;-77
2023/05/23 12:27:30;;;;;;;22.60;21.30;;;25.50;91.30;;;;;;5010919;28;20453;-78
2023/05/23 12:30:08;;;;;;;21.53;20.23;;;25.40;91.80;;;;;;5010789;28;20497;-79
2023/05/23 12:32:35;;;;;;;22.53;21.20;;;25.20;91.40;;;;;;5010830;28;20853;-77
2023/05/23 12:35:01;;;;;;;21.90;20.60;;;25.90;91.10;;;;;;5010688;28;20576;-78
2023/05/23 12:37:29;;;;;;;22.87;21.67;;;26.70;87.80;;;;;;5010603;28;20970;-77
2023/05/23 12:39:56;;;;;;;21.60;20.50;;;27.60;87.10;;;;;;5005243;28;20557;-79
2023/05/23 12:42:23;;;;;;;21.10;20.10;;;27.70;84.40;;;;;;5011067;28;20537;-78
2023/05/23 12:44:51;;;;;;;20.13;19.20;;;28.80;82.90;;;;;;5010850;28;20811;-77
2023/05/23 12:47:19;;;;;;;21.37;20.07;;;28.80;80.00;;;;;;5010446;28;20461;-76
2023/05/23 12:49:46;;;;;;;21.40;19.80;;;27.80;81.20;;;;;;5010495;28;20453;-77
2023/05/23 12:52:13;;;;;;;20.30;19.00;;;27.20;83.80;;;;;;5010858;28;20450;-77
2023/05/23 12:54:40;;;;;;;20.10;19.00;;;26.60;84.80;;;;;;5010577;28;20457;-78
2023/05/23 12:57:07;;;;;;;20.70;19.40;;;25.80;87.60;;;;;;5011037;28;20453;-78
2023/05/23 12:59:33;;;;;;;20.30;19.00;;;25.50;89.20;;;;;;5011286;28;20450;-77
2023/05/23 13:02:01;;;;;;;18.87;17.97;;;25.40;90.60;;;;;;5010614;28;20951;-77
2023/05/23 13:04:29;;;;;;;19.40;18.40;;;26.40;89.20;;;;;;5011842;28;20469;-77
2023/05/23 13:06:56;;;;;;;20.10;19.13;;;26.40;87.80;;;;;;5011455;28;20804;-78
2023/05/23 13:09:23;;;;;;;18.37;17.40;;;26.00;88.90;;;;;;5011301;28;20454;-77
2023/05/23 13:11:49;;;;;;;18.27;17.37;;;26.70;86.90;;;;;;5010298;28;20489;-78
2023/05/23 13:14:16;;;;;;;19.63;18.63;;;27.20;85.30;;;;;;5011211;28;20446;-77
2023/05/23 13:16:44;;;;;;;19.10;18.10;;;28.30;83.00;;;;;;5010597;28;20465;-76
2023/05/23 13:19:11;;;;;;;19.13;18.13;;;28.90;80.30;;;;;;5011523;28;20456;-79
2023/05/23 13:21:39;;;;;;;18.43;17.53;;;28.80;79.70;;;;;;5010320;28;20553;-79
2023/05/23 13:24:07;;;;;;;18.93;18.03;;;28.60;78.90;;;;;;5010237;28;20520;-79
2023/05/23 13:26:34;;;;;;;19.33;18.00;;;28.00;80.20;;;;;;5010673;28;20457;-79
2023/05/23 13:29:01;;;;;;;18.23;17.20;;;26.50;84.10;;;;;;5009641;28;20552;-79
2023/05/23 13:31:27;;;;;;;17.70;16.27;;;25.80;85.70;;;;;;5009743;28;20494;-78
2023/05/23 13:33:54;;;;;;;17.30;16.07;;;24.30;89.80;;;;;;5010136;28;20485;-76
2023/05/23 13:36:21;;;;;;;17.13;16.10;;;23.60;91.70;;;;;;5010532;28;20855;-78
2023/05/23 13:38:49;;;;;;;16.73;15.87;;;23.40;92.70;;;;;;5009988;28;20814;-79
2023/05/23 13:41:16;;;;;;;15.97;15.17;;;23.30;92.90;;;;;;5009485;28;20446;-78
2023/05/23 13:43:43;;;;;;;16.93;15.93;;;23.10;93.50;;;;;;5009305;28;20798;-79
2023/05/23 13:46:10;;;;;;;16.47;15.57;;;23.00;94.40;;;;;;5009566;28;20454;-77
2023/05/23 13:48:36;;;;;;;16.40;15.50;;;23.00;94.60;;;;;;5010267;28;20538;-79
2023/05/23 13:51:03;;;;;;;17.43;16.50;;;23.10;94.70;;;;;;5009708;28;20863;-77
2023/05/23 13:53:30;;;;;;;16.63;15.73;;;22.90;94.90;;;;;;5009878;28;20461;-78
2023/05/23 13:55:58;;;;;;;16.67;15.70;;;22.70;95.50;;;;;;5009834;28;20458;-78
2023/05/23 13:58:25;;;;;;;18.20;17.10;;;22.40;96.50;;;;;;5009882;28;20790;-78
2023/05/23 14:00:51;;;;;;;17.30;16.30;;;22.60;96.70;;;;;;5010001;28;20500;-78
2023/05/23 14:03:18;;;;;;;16.87;15.87;;;22.90;96.00;;;;;;5009668;28;20457;-77
2023/05/23 14:05:45;;;;;;;16.00;15.10;;;23.10;95.60;;;;;;5023322;28;20484;-77
2023/05/23 14:08:12;;;;;;;17.00;16.10;;;23.10;95.50;;;;;;5007898;28;20533;-80
2023/05/23 14:10:39;;;;;;;17.43;16.50;;;23.30;95.00;;;;;;5006299;28;20482;-78
2023/05/23 14:13:08;;;;;;;16.80;15.87;;;23.70;94.50;;;;;;5009077;28;20513;-78
2023/05/23 14:15:36;;;;;;;17.53;16.43;;;24.10;93.80;;;;;;5009007;28;20512;-78
2023/05/23 14:18:04;;;;;;;17.50;16.50;;;23.90;93.80;;;;;;5008838;28;20454;-78
2023/05/23 14:20:31;;;;;;;17.00;16.10;;;23.80;94.20;;;;;;5008854;28;20449;-78
2023/05/23 14:22:58;;;;;;;17.13;16.03;;;24.00;94.00;;;;;;5006221;28;20446;-78
2023/05/23 14:25:25;;;;;;;16.63;15.83;;;24.10;93.40;;;;;;5008948;28;20557;-78
2023/05/23 14:27:52;;;;;;;18.13;16.80;;;24.10;93.30;;;;;;5009016;28;20861;-78
2023/05/23 14:30:20;;;;;;;16.20;15.40;;;24.50;93.20;;;;;;5008905;28;20442;-78
2023/05/23 14:32:46;;;;;;;15.40;14.60;;;24.50;92.80;;;;;;5008378;28;20484;-78
2023/05/23 14:35:13;;;;;;;16.53;15.50;;;24.50;93.00;;;;;;5008516;28;20484;-78
2023/05/23 14:37:40;;;;;;;16.47;15.67;;;24.70;92.80;;;;;;5008859;28;20446;-78
2023/05/23 14:40:08;;;;;;;17.30;16.50;;;24.90;93.20;;;;;;5009548;28;20532;-77
2023/05/23 14:42:35;;;;;;;16.57;15.60;;;25.50;92.70;;;;;;5012675;28;20457;-78
2023/05/23 14:45:02;;;;;;;16.60;15.80;;;25.70;91.90;;;;;;5012513;28;20452;-78
2023/05/23 14:47:30;;;;;;;16.27;15.47;;;26.00;91.50;;;;;;5012362;28;20489;-78
2023/05/23 14:49:57;;;;;;;16.27;15.43;;;26.00;91.50;;;;;;5012475;28;20533;-78
2023/05/23 14:52:24;;;;;;;16.70;15.70;;;25.40;91.70;;;;;;5012845;28;20481;-78
2023/05/23 14:54:50;;;;;;;15.93;14.97;;;25.10;91.90;;;;;;5012714;28;20449;-77
2023/05/23 14:57:17;;;;;;;14.40;13.70;;;24.50;92.00;;;;;;5012265;28;20445;-77
2023/05/23 14:59:45;;;;;;;14.13;13.47;;;23.90;92.40;;;;;;5012294;28;20718;-77
2023/05/23 15:02:12;;;;;;;14.00;13.03;;;23.40;91.90;;;;;;5012697;28;20597;-77
2023/05/23 15:04:40;;;;;;;14.70;13.90;;;23.20;91.10;;;;;;5013168;28;20540;-78
2023/05/23 15:07:07;;;;;;;13.13;12.53;;;23.00;91.40;;;;;;5012343;28;20450;-78
2023/05/23 15:09:34;;;;;;;14.33;13.63;;;22.90;91.90;;;;;;5012652;28;20453;-78
2023/05/23 15:12:00;;;;;;;14.03;13.27;;;22.90;92.40;;;;;;5012283;28;20552;-78
2023/05/23 15:14:30;;;;;;;13.83;13.10;;;23.00;92.60;;;;;;5012340;28;20939;-78
2023/05/23 15:17:06;;;;;;;16.70;15.60;;;22.90;92.80;;;;;;5007361;28;20843;-78
2023/05/23 15:19:33;;;;;;;14.83;14.10;;;23.10;93.20;;;;;;5012410;28;21015;-78
2023/05/23 15:22:01;;;;;;;13.57;12.97;;;23.30;92.70;;;;;;5012477;28;20605;-78
2023/05/23 15:24:27;;;;;;;15.80;14.90;;;23.40;92.70;;;;;;5012341;28;20504;-78
2023/05/23 15:26:54;;;;;;;15.73;14.87;;;23.30;93.00;;;;;;5012728;28;20503;-79
2023/05/23 15:29:22;;;;;;;16.70;15.73;;;23.10;93.50;;;;;;5012470;28;20609;-78
2023/05/23 15:31:49;;;;;;;16.00;15.03;;;23.10;94.20;;;;;;5012129;28;20492;-79
2023/05/23 15:34:16;;;;;;;17.80;16.80;;;22.90;94.40;;;;;;5012033;28;20481;-78
2023/05/23 15:36:42;;;;;;;17.03;16.13;;;22.70;94.80;;;;;;5012209;28;20970;-78
2023/05/23 15:39:11;;;;;;;16.83;15.93;;;22.80;95.00;;;;;;5012757;28;20454;-78
2023/05/23 15:41:37;;;;;;;17.70;16.60;;;22.70;94.70;;;;;;5013001;28;20536;-79
2023/05/23 15:44:04;;;;;;;15.77;14.90;;;22.90;94.90;;;;;;5012576;28;20479;-79
2023/05/23 15:46:31;;;;;;;14.83;14.13;;;23.20;93.40;;;;;;5012586;28;21025;-78
2023/05/23 15:48:58;;;;;;;17.00;16.00;;;23.00;93.10;;;;;;5012537;28;20469;-77
2023/05/23 15:51:25;;;;;;;15.87;15.10;;;23.10;93.50;;;;;;5011508;28;20857;-78
2023/05/23 15:53:51;;;;;;;15.87;15.07;;;22.80;94.60;;;;;;5012069;28;20446;-80
2023/05/23 15:56:20;;;;;;;15.20;14.57;;;22.80;95.10;;;;;;5012241;28;20454;-78
2023/05/23 15:58:47;;;;;;;15.37;14.40;;;23.00;94.30;;;;;;5011887;28;20975;-79
2023/05/23 16:01:13;;;;;;;14.97;14.27;;;22.90;94.80;;;;;;5011891;28;20446;-78
2023/05/23 16:03:40;;;;;;;16.53;15.57;;;23.10;94.20;;;;;;5012025;28;20454;-77
2023/05/23 16:06:07;;;;;;;14.10;13.50;;;23.10;93.80;;;;;;5012165;28;20454;-78
2023/05/23 16:08:33;;;;;;;15.73;15.00;;;22.80;93.50;;;;;;5012866;28;20515;-79
2023/05/23 16:11:00;;;;;;;15.57;14.87;;;22.70;94.00;;;;;;5012379;28;20492;-79
2023/05/23 16:13:28;;;;;;;15.40;14.60;;;22.50;94.00;;;;;;5012188;28;20458;-79
2023/05/23 16:15:55;;;;;;;16.53;15.43;;;22.60;94.60;;;;;;5012287;28;20462;-79
2023/05/23 16:18:21;;;;;;;15.37;14.60;;;22.70;94.70;;;;;;5012380;28;20449;-79
2023/05/23 16:20:48;;;;;;;15.97;15.17;;;22.60;94.80;;;;;;5011550;28;20951;-78
2023/05/23 16:23:15;;;;;;;17.97;17.07;;;22.30;95.20;;;;;;5011953;28;20462;-79
2023/05/23 16:25:43;;;;;;;17.10;16.27;;;22.30;95.60;;;;;;5011883;28;20460;-78
2023/05/23 16:28:09;;;;;;;15.87;15.00;;;22.10;96.00;;;;;;5013508;28;20574;-78
2023/05/23 16:30:37;;;;;;;16.37;15.57;;;21.90;96.90;;;;;;5011710;28;20450;-77
2023/05/23 16:33:04;;;;;;;16.90;15.70;;;21.90;97.30;;;;;;5009934;28;20457;-78
2023/05/23 16:35:31;;;;;;;17.20;16.40;;;21.90;97.30;;;;;;5011912;28;20457;-79
2023/05/23 16:37:57;;;;;;;18.47;17.40;;;21.90;96.70;;;;;;5011731;28;20491;-78
2023/05/23 16:40:24;;;;;;;17.00;16.17;;;21.80;96.80;;;;;;5011764;28;20512;-78
2023/05/23 16:42:51;;;;;;;16.40;15.40;;;21.90;96.70;;;;;;5011641;28;20450;-77
2023/05/23 16:45:55;;;;;;;17.53;16.43;;;21.80;96.60;;;;;;5011764;28;20457;-77
2023/05/23 16:48:23;;;;;;;17.63;16.63;;;21.60;97.30;;;;;;5006942;28;20523;-77
2023/05/23 16:50:49;;;;;;;18.33;17.33;;;21.50;98.00;;;;;;5011814;28;20473;-77
2023/05/23 16:53:16;;;;;;;19.03;17.73;;;21.20;98.70;;;;;;5011331;28;20446;-77
2023/05/23 16:55:43;;;;;;;19.23;18.07;;;21.20;99.40;;;;;;5011137;28;20523;-77
2023/05/23 16:58:10;;;;;;;19.10;17.90;;;21.30;99.60;;;;;;5011580;28;20835;-77
2023/05/23 17:00:38;;;;;;;20.47;19.27;;;21.30;99.60;;;;;;5011198;28;20442;-75
2023/05/23 17:03:05;;;;;;;19.00;17.90;;;21.30;99.90;;;;;;5010696;28;20487;-78
2023/05/23 17:05:34;;;;;;;19.17;17.97;;;21.30;99.90;;;;;;5010492;28;21003;-76